Time;durP1;ratioP1;P1;durP2;ratioP2;P2;SDS_P1;SDS_P2;PMS_P1;PMS_P2;Temp;Humidity;BMP_temperature;BMP_pressure;BME280_temperature;BME280_humidity;BME280_pressure;Samples;Min_cycle;Max_cycle;Signal;HPM_P1;HPM_P2
2024/03/14 00:01:27;;;;;;;6.78;4.68;;;;;;;;;;5071906;28;20121;-79
2024/03/14 00:03:55;;;;;;;6.25;4.40;;;;;;;;;;5066103;28;20399;-79
2024/03/14 00:06:20;;;;;;;7.28;4.50;;;;;;;;;;5060124;28;20033;-79
2024/03/14 00:08:46;;;;;;;6.35;4.80;;;;;;;;;;5062704;28;20028;-79
2024/03/14 00:11:11;;;;;;;6.30;4.70;;;;;;;;;;5062100;28;20041;-79
2024/03/14 00:13:37;;;;;;;6.20;4.70;;;;;;;;;;5063284;28;20029;-79
2024/03/14 00:16:03;;;;;;;6.15;4.32;;;;;;;;;;5061438;28;20159;-79
2024/03/14 00:18:29;;;;;;;6.00;4.25;;;;;;;;;;5062667;28;20033;-79
2024/03/14 00:20:54;;;;;;;7.13;4.50;;;;;;;;;;5064016;28;20028;-79
2024/03/14 00:23:23;;;;;;;6.65;4.35;;;;;;;;;;5058732;28;20442;-79
2024/03/14 00:25:51;;;;;;;6.25;4.90;;;;;;;;;;5061167;28;20028;-79
2024/03/14 00:28:18;;;;;;;6.72;5.38;;;;;;;;;;5062846;28;20032;-79
2024/03/14 00:30:44;;;;;;;6.40;4.28;;;;;;;;;;5077238;28;20036;-79
2024/03/14 00:33:10;;;;;;;9.77;4.97;;;;;;;;;;5062356;28;20032;-79
2024/03/14 00:35:35;;;;;;;6.68;4.70;;;;;;;;;;5060654;28;20036;-79
2024/03/14 00:38:02;;;;;;;6.32;4.78;;;;;;;;;;5061151;28;20028;-79
2024/03/14 00:40:28;;;;;;;6.50;4.63;;;;;;;;;;5063286;28;20020;-79
2024/03/14 00:42:55;;;;;;;6.28;4.80;;;;;;;;;;5064353;28;20021;-79
2024/03/14 00:45:20;;;;;;;6.28;4.93;;;;;;;;;;5061891;28;20028;-79
2024/03/14 00:47:46;;;;;;;6.13;4.30;;;;;;;;;;5061758;28;20398;-79
2024/03/14 00:50:12;;;;;;;8.27;4.80;;;;;;;;;;5062765;28;20051;-79
2024/03/14 00:52:40;;;;;;;11.10;4.78;;;;;;;;;;5060835;28;20040;-79
2024/03/14 00:55:07;;;;;;;6.20;5.10;;;;;;;;;;5063022;28;20024;-79
2024/03/14 00:57:32;;;;;;;7.20;5.05;;;;;;;;;;5062245;28;20024;-79
2024/03/14 00:59:58;;;;;;;6.45;5.03;;;;;;;;;;5061494;28;20039;-90
2024/03/14 01:02:26;;;;;;;7.70;5.03;;;;;;;;;;5060948;28;20563;-90
2024/03/14 01:04:54;;;;;;;6.45;4.95;;;;;;;;;;5063421;28;20036;-89
2024/03/14 01:07:19;;;;;;;8.15;5.20;;;;;;;;;;5060457;28;20028;-89
2024/03/14 01:09:45;;;;;;;7.63;5.82;;;;;;;;;;5065997;28;20118;-89
2024/03/14 01:12:10;;;;;;;7.50;5.45;;;;;;;;;;5074142;28;20135;-89
2024/03/14 01:14:36;;;;;;;7.90;5.82;;;;;;;;;;5062847;28;20031;-90
2024/03/14 01:17:02;;;;;;;10.95;5.97;;;;;;;;;;5061606;28;21443;-90
2024/03/14 01:19:27;;;;;;;7.65;5.68;;;;;;;;;;5071128;28;20111;-89
2024/03/14 01:21:53;;;;;;;7.85;6.05;;;;;;;;;;5063940;28;20107;-90
2024/03/14 01:24:18;;;;;;;10.10;6.60;;;;;;;;;;5059331;28;20375;-90
2024/03/14 01:26:43;;;;;;;8.43;6.20;;;;;;;;;;5078596;28;20077;-90
2024/03/14 01:29:10;;;;;;;8.40;6.28;;;;;;;;;;5059849;28;20450;-90
2024/03/14 01:31:36;;;;;;;9.13;6.90;;;;;;;;;;5061353;28;20036;-89
2024/03/14 01:34:01;;;;;;;10.68;7.20;;;;;;;;;;5063638;28;20418;-90
2024/03/14 01:36:27;;;;;;;10.07;7.00;;;;;;;;;;5060882;28;20027;-90
2024/03/14 01:38:52;;;;;;;10.75;6.68;;;;;;;;;;5064797;28;20051;-89
2024/03/14 01:41:19;;;;;;;10.02;7.38;;;;;;;;;;5062749;28;20087;-89
2024/03/14 01:43:58;;;;;;;13.30;7.10;;;;;;;;;;5061835;28;20095;-89
2024/03/14 01:46:31;;;;;;;9.07;7.35;;;;;;;;;;5073256;28;20525;-90
2024/03/14 01:48:58;;;;;;;10.48;6.88;;;;;;;;;;5061635;28;20025;-90
2024/03/14 01:51:24;;;;;;;8.88;6.85;;;;;;;;;;5062971;28;20048;-89
2024/03/14 01:53:50;;;;;;;10.57;6.95;;;;;;;;;;5061859;28;20077;-89
2024/03/14 01:56:17;;;;;;;11.35;8.07;;;;;;;;;;5064728;28;20160;-90
2024/03/14 01:58:43;;;;;;;11.65;8.07;;;;;;;;;;5060073;28;20017;-90
2024/03/14 02:01:10;;;;;;;11.63;8.13;;;;;;;;;;5055592;28;20486;-89
2024/03/14 02:06:26;;;;;;;12.65;8.90;;;;;;;;;;5044706;28;20060;-83
2024/03/14 02:08:52;;;;;;;10.73;8.32;;;;;;;;;;5039524;28;20040;-83
2024/03/14 02:11:18;;;;;;;10.93;7.78;;;;;;;;;;5026255;28;20033;-83
2024/03/14 02:13:44;;;;;;;10.18;7.95;;;;;;;;;;5029071;28;20020;-84
2024/03/14 02:16:10;;;;;;;9.77;7.70;;;;;;;;;;5029741;28;20384;-84
2024/03/14 02:18:35;;;;;;;11.65;8.02;;;;;;;;;;5029633;28;20017;-83
2024/03/14 02:21:01;;;;;;;12.27;8.27;;;;;;;;;;5050619;28;20032;-83
2024/03/14 02:23:26;;;;;;;11.10;8.13;;;;;;;;;;5031265;28;20029;-83
2024/03/14 02:25:52;;;;;;;10.95;7.82;;;;;;;;;;5030351;28;20034;-83
2024/03/14 02:28:17;;;;;;;11.88;8.43;;;;;;;;;;5046296;28;20033;-85
2024/03/14 02:30:44;;;;;;;10.77;8.13;;;;;;;;;;5029493;28;20035;-83
2024/03/14 02:33:11;;;;;;;14.00;8.05;;;;;;;;;;5048406;28;20033;-85
2024/03/14 02:35:37;;;;;;;10.32;7.80;;;;;;;;;;5031726;28;20123;-85
2024/03/14 02:38:02;;;;;;;13.43;8.88;;;;;;;;;;5048149;28;20120;-85
2024/03/14 02:40:28;;;;;;;12.02;8.95;;;;;;;;;;5047673;28;20036;-85
2024/03/14 02:42:56;;;;;;;12.50;8.98;;;;;;;;;;5048966;28;20044;-85
2024/03/14 02:45:22;;;;;;;13.77;8.70;;;;;;;;;;5048093;28;20036;-85
2024/03/14 02:47:56;;;;;;;12.63;8.70;;;;;;;;;;5032889;28;20029;-87
2024/03/14 02:50:22;;;;;;;13.10;8.35;;;;;;;;;;5029125;28;20025;-87
2024/03/14 02:52:47;;;;;;;12.10;8.70;;;;;;;;;;5049305;28;20166;-87
2024/03/14 02:55:13;;;;;;;13.07;8.52;;;;;;;;;;5031867;28;20494;-86
2024/03/14 02:57:39;;;;;;;10.40;8.05;;;;;;;;;;5033632;28;20037;-87
2024/03/14 03:00:10;;;;;;;12.13;8.52;;;;;;;;;;5033482;28;20017;-87
2024/03/14 03:02:36;;;;;;;12.93;9.73;;;;;;;;;;5048416;28;20086;-83
2024/03/14 03:05:01;;;;;;;13.02;8.15;;;;;;;;;;5018461;28;20496;-82
2024/03/14 03:07:28;;;;;;;12.27;8.80;;;;;;;;;;5028778;28;20381;-83
2024/03/14 03:09:54;;;;;;;11.63;8.55;;;;;;;;;;5018382;28;20034;-83
2024/03/14 03:12:19;;;;;;;13.98;9.10;;;;;;;;;;5037427;28;20039;-84
2024/03/14 03:14:45;;;;;;;12.85;7.97;;;;;;;;;;5039436;28;20105;-83
2024/03/14 03:17:10;;;;;;;11.73;8.40;;;;;;;;;;5018103;28;20430;-83
2024/03/14 03:19:36;;;;;;;10.93;8.38;;;;;;;;;;5041146;28;20028;-82
2024/03/14 03:22:02;;;;;;;12.27;8.07;;;;;;;;;;5021235;28;20408;-83
2024/03/14 03:24:28;;;;;;;12.95;8.93;;;;;;;;;;5022289;28;20037;-84
2024/03/14 03:26:53;;;;;;;12.52;8.57;;;;;;;;;;5036716;28;20157;-83
2024/03/14 03:29:19;;;;;;;12.65;8.70;;;;;;;;;;5022404;28;20354;-84
2024/03/14 03:31:45;;;;;;;12.75;8.52;;;;;;;;;;5022753;28;20431;-83
2024/03/14 03:34:10;;;;;;;12.32;8.73;;;;;;;;;;5035703;28;20080;-84
2024/03/14 03:36:36;;;;;;;10.82;8.13;;;;;;;;;;5036410;28;20397;-83
2024/03/14 03:39:03;;;;;;;13.20;8.45;;;;;;;;;;5017501;28;20025;-83
2024/03/14 03:41:32;;;;;;;13.60;9.00;;;;;;;;;;5031812;28;20064;-84
2024/03/14 03:43:57;;;;;;;12.65;8.80;;;;;;;;;;5036579;28;20514;-83
2024/03/14 03:46:23;;;;;;;11.85;8.27;;;;;;;;;;5017828;28;20021;-83
2024/03/14 03:48:49;;;;;;;11.25;8.55;;;;;;;;;;5037940;28;20048;-84
2024/03/14 03:51:17;;;;;;;11.85;8.35;;;;;;;;;;5035547;28;20069;-88
2024/03/14 03:53:43;;;;;;;13.05;9.05;;;;;;;;;;5021152;28;20082;-87
2024/03/14 03:56:11;;;;;;;14.95;9.35;;;;;;;;;;5033354;28;20116;-85
2024/03/14 03:58:36;;;;;;;12.75;8.98;;;;;;;;;;5014099;28;20572;-85
2024/03/14 04:01:19;;;;;;;12.90;9.38;;;;;;;;;;5019526;28;20116;-85
2024/03/14 04:03:47;;;;;;;12.00;8.48;;;;;;;;;;5037989;28;20514;-85
2024/03/14 04:06:15;;;;;;;11.27;8.15;;;;;;;;;;5037098;28;20055;-85
2024/03/14 04:08:41;;;;;;;12.90;8.95;;;;;;;;;;5013707;28;20053;-84
2024/03/14 04:11:09;;;;;;;11.98;8.10;;;;;;;;;;5035082;28;20060;-85
2024/03/14 04:13:35;;;;;;;13.27;8.75;;;;;;;;;;5034804;28;20550;-85
2024/03/14 04:16:03;;;;;;;13.07;8.77;;;;;;;;;;5023180;28;20034;-85
2024/03/14 04:18:29;;;;;;;14.50;9.05;;;;;;;;;;5021846;28;20545;-85
2024/03/14 04:20:56;;;;;;;14.35;9.15;;;;;;;;;;5021876;28;20021;-85
2024/03/14 04:23:24;;;;;;;11.73;8.40;;;;;;;;;;5019595;28;20597;-83
2024/03/14 04:25:50;;;;;;;12.98;8.82;;;;;;;;;;5029673;28;20021;-83
2024/03/14 04:28:18;;;;;;;13.30;9.18;;;;;;;;;;5037092;28;20028;-82
2024/03/14 04:30:47;;;;;;;11.55;8.38;;;;;;;;;;5040302;28;20492;-84
2024/03/14 04:33:13;;;;;;;12.48;9.07;;;;;;;;;;5020782;28;20029;-83
2024/03/14 04:35:38;;;;;;;11.18;8.40;;;;;;;;;;5032448;28;20033;-87
2024/03/14 04:38:04;;;;;;;13.65;8.23;;;;;;;;;;5017657;28;20025;-86
2024/03/14 04:40:29;;;;;;;11.02;7.60;;;;;;;;;;5022359;28;20087;-87
2024/03/14 04:42:58;;;;;;;12.27;8.85;;;;;;;;;;5020996;28;20095;-88
2024/03/14 04:45:24;;;;;;;13.18;8.98;;;;;;;;;;5020145;28;20028;-87
2024/03/14 04:47:50;;;;;;;13.00;8.48;;;;;;;;;;5019564;28;20369;-84
2024/03/14 04:50:18;;;;;;;10.98;8.00;;;;;;;;;;5014294;28;20515;-82
2024/03/14 04:52:44;;;;;;;12.70;9.02;;;;;;;;;;5018201;28;20460;-83
2024/03/14 04:55:13;;;;;;;12.95;9.40;;;;;;;;;;5017403;28;20027;-82
2024/03/14 04:57:45;;;;;;;11.95;8.90;;;;;;;;;;5021985;28;20472;-84
2024/03/14 05:00:20;;;;;;;13.13;8.38;;;;;;;;;;5035948;28;20028;-83
2024/03/14 05:02:49;;;;;;;11.48;8.45;;;;;;;;;;5030110;28;20033;-83
2024/03/14 05:05:15;;;;;;;11.10;8.70;;;;;;;;;;5036483;28;20029;-83
2024/03/14 05:07:42;;;;;;;11.40;7.88;;;;;;;;;;5017186;28;20037;-84
2024/03/14 05:10:08;;;;;;;13.45;8.88;;;;;;;;;;5018650;28;20487;-84
2024/03/14 05:12:34;;;;;;;10.40;8.32;;;;;;;;;;5035042;28;20036;-82
2024/03/14 05:14:59;;;;;;;10.10;7.68;;;;;;;;;;5013226;28;20042;-83
2024/03/14 05:17:25;;;;;;;9.80;7.63;;;;;;;;;;5019303;28;20037;-82
2024/03/14 05:19:50;;;;;;;11.20;7.85;;;;;;;;;;5019980;28;20022;-83
2024/03/14 05:22:17;;;;;;;10.52;7.68;;;;;;;;;;5036435;28;20374;-83
2024/03/14 05:24:42;;;;;;;10.35;7.50;;;;;;;;;;5038116;28;20544;-83
2024/03/14 05:27:10;;;;;;;11.63;7.25;;;;;;;;;;5035779;28;20109;-83
2024/03/14 05:29:39;;;;;;;9.98;7.18;;;;;;;;;;5020174;28;20032;-83
2024/03/14 05:32:23;;;;;;;10.00;7.20;;;;;;;;;;5014357;28;20472;-84
2024/03/14 05:34:49;;;;;;;11.32;7.05;;;;;;;;;;5020457;28;20464;-83
2024/03/14 05:37:14;;;;;;;10.48;7.18;;;;;;;;;;5028059;28;20064;-83
2024/03/14 05:39:41;;;;;;;9.30;6.70;;;;;;;;;;5037928;28;20384;-84
2024/03/14 05:42:09;;;;;;;9.07;6.93;;;;;;;;;;5032524;28;20030;-83
2024/03/14 05:44:38;;;;;;;10.05;7.10;;;;;;;;;;5017922;28;20613;-83
2024/03/14 05:47:04;;;;;;;9.20;6.50;;;;;;;;;;5030445;28;20029;-84
2024/03/14 05:49:30;;;;;;;10.32;6.90;;;;;;;;;;5021138;28;20025;-83
2024/03/14 05:51:55;;;;;;;9.52;6.78;;;;;;;;;;5035173;28;20407;-82
2024/03/14 05:54:20;;;;;;;8.60;6.53;;;;;;;;;;5013676;28;20061;-82
2024/03/14 05:56:46;;;;;;;10.20;6.82;;;;;;;;;;5024696;28;20036;-87
2024/03/14 05:59:11;;;;;;;8.82;6.32;;;;;;;;;;5023383;28;20163;-87
2024/03/14 06:01:38;;;;;;;9.75;6.57;;;;;;;;;;5032416;28;20455;-88
2024/03/14 06:04:05;;;;;;;9.85;6.38;;;;;;;;;;5016579;28;20029;-85
2024/03/14 06:07:09;;;;;;;8.93;6.35;;;;;;;;;;5035752;28;20526;-85
2024/03/14 06:10:20;;;;;;;;;;;;;;;;;;;;;
2024/03/14 06:12:46;;;;;;;8.77;6.15;;;;;;;;;;5034159;28;20048;-85
2024/03/14 06:15:14;;;;;;;12.38;6.70;;;;;;;;;;5020759;28;20658;-84
2024/03/14 06:17:41;;;;;;;9.15;6.05;;;;;;;;;;5034199;28;20518;-83
2024/03/14 06:20:12;;;;;;;10.60;6.85;;;;;;;;;;5017256;28;20663;-83
2024/03/14 06:22:39;;;;;;;9.20;6.25;;;;;;;;;;5016623;28;20031;-82
2024/03/14 06:25:07;;;;;;;8.98;5.95;;;;;;;;;;5031324;28;20060;-82
2024/03/14 06:27:33;;;;;;;8.90;6.15;;;;;;;;;;5018101;28;20461;-82
2024/03/14 06:29:59;;;;;;;7.55;5.55;;;;;;;;;;5036133;28;20029;-83
2024/03/14 06:32:24;;;;;;;7.95;5.97;;;;;;;;;;5024006;28;20445;-82
2024/03/14 06:34:50;;;;;;;8.43;6.00;;;;;;;;;;5038404;28;20052;-83
2024/03/14 06:37:17;;;;;;;8.55;5.60;;;;;;;;;;5039785;28;20036;-82
2024/03/14 06:39:45;;;;;;;7.78;5.80;;;;;;;;;;5018915;28;20064;-83
2024/03/14 06:42:10;;;;;;;7.82;5.82;;;;;;;;;;5039730;28;20074;-82
2024/03/14 06:44:36;;;;;;;8.27;5.72;;;;;;;;;;5014171;28;20026;-85
2024/03/14 06:47:01;;;;;;;8.73;5.65;;;;;;;;;;5028926;28;20037;-85
2024/03/14 06:49:31;;;;;;;7.90;5.70;;;;;;;;;;5016846;28;20034;-85
2024/03/14 06:52:00;;;;;;;9.43;6.85;;;;;;;;;;5019919;28;20546;-86
2024/03/14 06:54:25;;;;;;;9.63;6.07;;;;;;;;;;5038253;28;20028;-85
2024/03/14 06:56:53;;;;;;;9.02;5.70;;;;;;;;;;5042802;28;20036;-85
2024/03/14 06:59:18;;;;;;;8.82;6.03;;;;;;;;;;5018203;28;20025;-85
2024/03/14 07:01:46;;;;;;;8.60;5.93;;;;;;;;;;5015675;28;20547;-85
2024/03/14 07:04:14;;;;;;;7.47;5.43;;;;;;;;;;5017584;28;20036;-85
2024/03/14 07:06:42;;;;;;;7.50;5.43;;;;;;;;;;5016328;28;20037;-84
2024/03/14 07:09:09;;;;;;;9.88;6.05;;;;;;;;;;5018435;28;20535;-85
2024/03/14 07:11:37;;;;;;;9.77;6.22;;;;;;;;;;5022594;28;20028;-85
2024/03/14 07:14:02;;;;;;;10.75;5.78;;;;;;;;;;5024387;28;20052;-85
2024/03/14 07:16:27;;;;;;;8.57;5.47;;;;;;;;;;5034307;28;20045;-85
2024/03/14 07:18:56;;;;;;;8.55;5.93;;;;;;;;;;5018929;28;20024;-85
2024/03/14 07:21:24;;;;;;;7.40;5.35;;;;;;;;;;5016708;28;20477;-85
2024/03/14 07:23:50;;;;;;;9.43;5.95;;;;;;;;;;5034745;28;20022;-85
2024/03/14 07:26:22;;;;;;;8.90;5.38;;;;;;;;;;5035346;28;20045;-85
2024/03/14 07:28:57;;;;;;;9.52;6.00;;;;;;;;;;5019214;28;20040;-85
2024/03/14 07:31:23;;;;;;;7.82;5.47;;;;;;;;;;5033904;28;20538;-85
2024/03/14 07:33:48;;;;;;;7.57;5.28;;;;;;;;;;5013969;28;20025;-82
2024/03/14 07:36:17;;;;;;;10.98;5.78;;;;;;;;;;5016538;28;20036;-82
2024/03/14 07:38:43;;;;;;;9.90;5.80;;;;;;;;;;5020332;28;20021;-82
2024/03/14 07:41:12;;;;;;;7.78;5.88;;;;;;;;;;5014629;28;20025;-82
2024/03/14 07:43:41;;;;;;;8.38;5.72;;;;;;;;;;5027091;28;20385;-82
2024/03/14 07:46:08;;;;;;;10.27;5.90;;;;;;;;;;5023158;28;20058;-83
2024/03/14 07:48:37;;;;;;;7.75;5.45;;;;;;;;;;5014095;28;20625;-82
2024/03/14 07:51:07;;;;;;;7.45;5.30;;;;;;;;;;5015712;28;20033;-82
2024/03/14 07:53:33;;;;;;;7.95;5.55;;;;;;;;;;5016093;28;20026;-82
2024/03/14 07:55:59;;;;;;;7.95;5.55;;;;;;;;;;5013715;28;20503;-84
2024/03/14 07:58:24;;;;;;;7.35;5.50;;;;;;;;;;5031792;28;20029;-81
2024/03/14 08:00:52;;;;;;;7.93;5.65;;;;;;;;;;5018767;28;20030;-81
2024/03/14 08:03:18;;;;;;;9.18;5.43;;;;;;;;;;5033076;28;20025;-82
2024/03/14 08:05:50;;;;;;;8.38;5.50;;;;;;;;;;5037602;28;20033;-81
2024/03/14 08:08:18;;;;;;;8.93;5.05;;;;;;;;;;5014874;28;20495;-84
2024/03/14 08:10:47;;;;;;;7.82;4.80;;;;;;;;;;5035153;28;20080;-84
2024/03/14 08:13:20;;;;;;;7.45;5.43;;;;;;;;;;5041688;28;20071;-84
2024/03/14 08:15:54;;;;;;;;;;;;;;;;;;5030020;28;20033;-84
2024/03/14 08:18:21;;;;;;;8.63;5.07;;;;;;;;;;5009677;28;19917;-83
2024/03/14 08:20:52;;;;;;;7.78;5.03;;;;;;;;;;5020097;28;20040;-84
2024/03/14 08:23:20;;;;;;;7.47;5.45;;;;;;;;;;5021424;28;20971;-84
2024/03/14 08:25:47;;;;;;;6.47;4.70;;;;;;;;;;5020671;28;20443;-83
2024/03/14 08:28:13;;;;;;;6.88;4.82;;;;;;;;;;5023931;28;20168;-84
2024/03/14 08:30:39;;;;;;;8.60;4.82;;;;;;;;;;5007568;28;20116;-84
2024/03/14 08:33:08;;;;;;;7.15;5.03;;;;;;;;;;5006745;28;20033;-84
2024/03/14 08:35:36;;;;;;;6.45;4.72;;;;;;;;;;5030389;28;20037;-84
2024/03/14 08:38:04;;;;;;;6.22;4.85;;;;;;;;;;5021807;28;20469;-84
2024/03/14 08:40:30;;;;;;;6.75;5.00;;;;;;;;;;5022260;28;20381;-84
2024/03/14 08:42:55;;;;;;;8.52;4.75;;;;;;;;;;5023997;28;20025;-84
2024/03/14 08:45:21;;;;;;;9.00;5.03;;;;;;;;;;5012049;28;20468;-85
2024/03/14 08:47:47;;;;;;;6.63;4.60;;;;;;;;;;5015942;28;20035;-85
2024/03/14 08:50:14;;;;;;;7.40;5.00;;;;;;;;;;5028702;28;20026;-84
2024/03/14 08:52:41;;;;;;;7.25;4.80;;;;;;;;;;5016987;28;20025;-85
2024/03/14 08:55:23;;;;;;;5.95;4.63;;;;;;;;;;5037820;28;20440;-82
2024/03/14 08:57:51;;;;;;;7.28;4.53;;;;;;;;;;5029251;28;20091;-82
2024/03/14 09:00:17;;;;;;;5.88;4.40;;;;;;;;;;5012897;28;20044;-82
2024/03/14 09:02:43;;;;;;;7.32;5.32;;;;;;;;;;5025543;28;20036;-82
2024/03/14 09:05:11;;;;;;;7.72;4.90;;;;;;;;;;5030587;28;20029;-84
2024/03/14 09:07:40;;;;;;;7.25;5.28;;;;;;;;;;5032484;28;20044;-84
2024/03/14 09:10:16;;;;;;;7.55;4.50;;;;;;;;;;5011257;28;20421;-84
2024/03/14 09:12:43;;;;;;;5.82;4.50;;;;;;;;;;5022355;28;20022;-85
2024/03/14 09:15:12;;;;;;;6.20;4.80;;;;;;;;;;5025126;28;20116;-84
2024/03/14 09:17:38;;;;;;;6.82;4.70;;;;;;;;;;5028845;28;20435;-84
2024/03/14 09:20:08;;;;;;;7.25;5.07;;;;;;;;;;5015806;28;20021;-84
2024/03/14 09:22:35;;;;;;;7.78;4.93;;;;;;;;;;5031997;28;20025;-84
2024/03/14 09:25:01;;;;;;;8.98;4.57;;;;;;;;;;5031439;28;20116;-85
2024/03/14 09:27:27;;;;;;;6.03;4.40;;;;;;;;;;5036825;28;20039;-85
2024/03/14 09:29:54;;;;;;;5.80;4.30;;;;;;;;;;5031896;28;20034;-84
2024/03/14 09:32:24;;;;;;;7.15;4.05;;;;;;;;;;5023920;28;20091;-85
2024/03/14 09:34:49;;;;;;;6.25;4.03;;;;;;;;;;5014304;28;20072;-85
2024/03/14 09:37:16;;;;;;;7.68;3.95;;;;;;;;;;5031542;28;20427;-84
2024/03/14 09:39:44;;;;;;;5.20;3.55;;;;;;;;;;5015757;28;20086;-84
2024/03/14 09:42:12;;;;;;;6.13;4.13;;;;;;;;;;5030329;28;20029;-84
2024/03/14 09:44:37;;;;;;;5.95;3.65;;;;;;;;;;5038583;28;20024;-84
2024/03/14 09:47:21;;;;;;;6.35;4.00;;;;;;;;;;5005953;28;20025;-85
2024/03/14 09:49:54;;;;;;;5.55;3.30;;;;;;;;;;5030617;28;20163;-84
2024/03/14 09:52:19;;;;;;;5.35;4.07;;;;;;;;;;5026849;28;20511;-85
2024/03/14 09:54:49;;;;;;;6.32;4.38;;;;;;;;;;5035056;28;20069;-84
2024/03/14 09:57:16;;;;;;;5.28;3.95;;;;;;;;;;5012155;28;20060;-81
2024/03/14 09:59:42;;;;;;;5.70;4.28;;;;;;;;;;5030811;28;20024;-81
2024/03/14 10:02:16;;;;;;;6.15;4.00;;;;;;;;;;5012114;28;20033;-80
2024/03/14 10:04:44;;;;;;;5.65;3.65;;;;;;;;;;5030463;28;20369;-81
2024/03/14 10:07:09;;;;;;;6.78;4.05;;;;;;;;;;5028747;28;20025;-81
2024/03/14 10:09:35;;;;;;;6.15;3.40;;;;;;;;;;5029474;28;20033;-80
2024/03/14 10:12:03;;;;;;;6.43;3.80;;;;;;;;;;5010676;28;20503;-81
2024/03/14 10:14:36;;;;;;;4.70;3.47;;;;;;;;;;5013678;28;20424;-80
2024/03/14 10:17:04;;;;;;;4.93;3.40;;;;;;;;;;5010750;28;20026;-80
2024/03/14 10:19:33;;;;;;;5.45;3.40;;;;;;;;;;5014716;28;20025;-82
2024/03/14 10:22:01;;;;;;;5.05;3.70;;;;;;;;;;5027712;28;20034;-81
2024/03/14 10:24:29;;;;;;;4.82;3.15;;;;;;;;;;5028029;28;20366;-79
2024/03/14 10:26:56;;;;;;;4.70;2.75;;;;;;;;;;5030593;28;20530;-81
2024/03/14 10:29:25;;;;;;;4.57;3.22;;;;;;;;;;5031400;28;20030;-80
2024/03/14 10:31:52;;;;;;;4.28;2.97;;;;;;;;;;5031597;28;20377;-80
2024/03/14 10:34:19;;;;;;;5.28;3.30;;;;;;;;;;5015488;28;20480;-80
2024/03/14 10:36:51;;;;;;;4.90;3.13;;;;;;;;;;5032443;28;20125;-82
2024/03/14 10:39:18;;;;;;;4.35;3.15;;;;;;;;;;5003155;28;20544;-80
2024/03/14 10:41:47;;;;;;;4.45;2.90;;;;;;;;;;5036665;28;20022;-84
2024/03/14 10:44:15;;;;;;;4.10;3.00;;;;;;;;;;5032505;28;20036;-84
2024/03/14 10:46:42;;;;;;;4.68;2.70;;;;;;;;;;5032919;28;20064;-84
2024/03/14 10:49:11;;;;;;;4.30;2.83;;;;;;;;;;5018048;28;20473;-84
2024/03/14 10:51:39;;;;;;;5.20;2.85;;;;;;;;;;5029217;28;20423;-85
2024/03/14 10:54:08;;;;;;;4.15;2.63;;;;;;;;;;5009995;28;20045;-81
2024/03/14 10:56:37;;;;;;;3.60;2.70;;;;;;;;;;5008716;28;20052;-81
2024/03/14 10:59:06;;;;;;;3.83;2.45;;;;;;;;;;5023546;28;20459;-81
2024/03/14 11:01:33;;;;;;;3.58;2.30;;;;;;;;;;5028864;28;20411;-82
2024/03/14 11:04:00;;;;;;;6.38;2.88;;;;;;;;;;5026074;28;20150;-81
2024/03/14 11:06:29;;;;;;;4.30;2.90;;;;;;;;;;5008270;28;21537;-80
2024/03/14 11:08:59;;;;;;;3.53;2.50;;;;;;;;;;5025550;28;20025;-84
2024/03/14 11:11:28;;;;;;;4.50;2.53;;;;;;;;;;5008223;28;20037;-80
2024/03/14 11:13:54;;;;;;;5.32;2.80;;;;;;;;;;5011946;28;20136;-81
2024/03/14 11:16:28;;;;;;;4.15;2.80;;;;;;;;;;5024547;28;20026;-80
2024/03/14 11:18:59;;;;;;;5.07;2.42;;;;;;;;;;5009192;28;20485;-80
2024/03/14 11:21:33;;;;;;;4.80;2.78;;;;;;;;;;5019431;28;20148;-81
2024/03/14 11:24:09;;;;;;;4.28;2.78;;;;;;;;;;5027851;28;20071;-81
2024/03/14 11:26:37;;;;;;;5.32;2.65;;;;;;;;;;5014232;28;20041;-84
2024/03/14 11:29:05;;;;;;;4.15;2.40;;;;;;;;;;5020961;28;20472;-84
2024/03/14 11:32:13;;;;;;;5.25;2.50;;;;;;;;;;5035961;28;20024;-84
2024/03/14 11:34:39;;;;;;;3.40;2.10;;;;;;;;;;5016564;28;20036;-84
2024/03/14 11:37:05;;;;;;;3.50;2.00;;;;;;;;;;5032668;28;20380;-84
2024/03/14 11:39:39;;;;;;;4.25;2.20;;;;;;;;;;5031500;28;20056;-80
2024/03/14 11:42:10;;;;;;;5.90;2.17;;;;;;;;;;5021392;28;20013;-80
2024/03/14 11:44:44;;;;;;;3.03;2.00;;;;;;;;;;5017405;28;20032;-80
2024/03/14 11:47:19;;;;;;;4.50;2.15;;;;;;;;;;5016683;28;20051;-80
2024/03/14 11:49:46;;;;;;;2.78;1.98;;;;;;;;;;5024889;28;20025;-80
2024/03/14 11:52:15;;;;;;;2.78;1.75;;;;;;;;;;5014126;28;20071;-82
2024/03/14 11:54:41;;;;;;;4.00;1.70;;;;;;;;;;5022924;28;20104;-82
2024/03/14 11:57:15;;;;;;;2.83;1.70;;;;;;;;;;5021668;28;20112;-82
2024/03/14 11:59:41;;;;;;;3.42;1.80;;;;;;;;;;5008725;28;20381;-82
2024/03/14 12:02:09;;;;;;;2.65;1.60;;;;;;;;;;5028332;28;20026;-80
2024/03/14 12:04:35;;;;;;;3.22;1.70;;;;;;;;;;5033797;28;20031;-81
2024/03/14 12:07:03;;;;;;;3.20;1.25;;;;;;;;;;5036885;28;20063;-80
2024/03/14 12:09:31;;;;;;;2.63;1.30;;;;;;;;;;5031851;28;20488;-80
2024/03/14 12:11:59;;;;;;;2.08;1.30;;;;;;;;;;5014518;28;20032;-80
2024/03/14 12:14:25;;;;;;;2.67;1.40;;;;;;;;;;5029685;28;20025;-81
2024/03/14 12:16:50;;;;;;;2.33;1.10;;;;;;;;;;5013433;28;20440;-80
2024/03/14 12:19:16;;;;;;;2.47;1.20;;;;;;;;;;5024962;28;20025;-80
2024/03/14 12:21:49;;;;;;;1.88;1.10;;;;;;;;;;5017426;28;20378;-80
2024/03/14 12:24:14;;;;;;;3.03;1.10;;;;;;;;;;5029780;28;20029;-79
2024/03/14 12:26:42;;;;;;;2.42;1.10;;;;;;;;;;5031840;28;20033;-80
2024/03/14 12:29:09;;;;;;;2.15;0.90;;;;;;;;;;5011143;28;20144;-80
2024/03/14 12:31:38;;;;;;;1.88;1.00;;;;;;;;;;5030636;28;20469;-79
2024/03/14 12:34:05;;;;;;;2.55;0.93;;;;;;;;;;5018375;28;20108;-80
2024/03/14 12:36:31;;;;;;;2.60;1.10;;;;;;;;;;5030677;28;20029;-84
2024/03/14 12:38:58;;;;;;;2.42;1.10;;;;;;;;;;5011228;28;20021;-84
2024/03/14 12:41:29;;;;;;;2.40;1.10;;;;;;;;;;5030411;28;20521;-83
2024/03/14 12:43:56;;;;;;;3.05;1.30;;;;;;;;;;5024927;28;20045;-83
2024/03/14 12:46:23;;;;;;;3.25;1.20;;;;;;;;;;5006095;28;20377;-83
2024/03/14 12:48:48;;;;;;;4.32;1.50;;;;;;;;;;5021693;28;20029;-83
2024/03/14 12:51:19;;;;;;;3.42;1.27;;;;;;;;;;5005120;28;20037;-85
2024/03/14 12:53:55;;;;;;;3.08;1.27;;;;;;;;;;5005145;28;20025;-82
2024/03/14 12:56:21;;;;;;;3.47;1.50;;;;;;;;;;5023941;28;20028;-82
2024/03/14 12:58:53;;;;;;;2.47;1.20;;;;;;;;;;5006749;28;20029;-82
2024/03/14 13:01:19;;;;;;;2.40;1.40;;;;;;;;;;5008405;28;20419;-82
2024/03/14 13:03:45;;;;;;;1.98;1.20;;;;;;;;;;5012355;28;20175;-81
2024/03/14 13:06:23;;;;;;;2.63;1.10;;;;;;;;;;5022740;28;20041;-83
2024/03/14 13:09:04;;;;;;;2.28;1.20;;;;;;;;;;5027676;28;20021;-81
2024/03/14 13:11:30;;;;;;;2.13;1.00;;;;;;;;;;5027584;28;20082;-84
2024/03/14 13:14:15;;;;;;;3.17;1.27;;;;;;;;;;5009117;28;21737;-85
2024/03/14 13:16:41;;;;;;;2.45;1.20;;;;;;;;;;5010079;28;20422;-82
2024/03/14 13:19:13;;;;;;;2.25;1.20;;;;;;;;;;5028742;28;20021;-82
2024/03/14 13:21:44;;;;;;;2.47;1.30;;;;;;;;;;5031232;28;20029;-83
2024/03/14 13:24:13;;;;;;;2.42;1.30;;;;;;;;;;5011490;28;20029;-82
2024/03/14 13:26:39;;;;;;;2.45;1.10;;;;;;;;;;5014350;28;20079;-83
2024/03/14 13:29:04;;;;;;;2.30;1.50;;;;;;;;;;5032260;28;20124;-82
2024/03/14 13:31:29;;;;;;;2.85;1.17;;;;;;;;;;5011792;28;20108;-82
2024/03/14 13:33:56;;;;;;;3.78;1.40;;;;;;;;;;5036581;28;20036;-83
2024/03/14 13:36:21;;;;;;;3.92;1.27;;;;;;;;;;5028474;28;20025;-82
2024/03/14 13:38:47;;;;;;;1.88;1.15;;;;;;;;;;5013257;28;20045;-80
2024/03/14 13:41:12;;;;;;;1.92;1.20;;;;;;;;;;5026610;28;20511;-78
2024/03/14 13:43:39;;;;;;;2.70;1.30;;;;;;;;;;5029656;28;20041;-78
2024/03/14 13:46:05;;;;;;;2.42;1.40;;;;;;;;;;5023833;28;20116;-78
2024/03/14 13:48:32;;;;;;;2.35;1.20;;;;;;;;;;5027523;28;20373;-78
2024/03/14 13:50:57;;;;;;;1.88;1.10;;;;;;;;;;5029306;28;20041;-80
2024/03/14 13:53:26;;;;;;;2.33;1.20;;;;;;;;;;5031000;28;20500;-78
2024/03/14 13:55:51;;;;;;;2.83;1.30;;;;;;;;;;5011637;28;20025;-79
2024/03/14 13:58:21;;;;;;;1.48;1.10;;;;;;;;;;5018919;28;20041;-78
2024/03/14 14:00:50;;;;;;;1.80;1.13;;;;;;;;;;5024644;28;20378;-79
2024/03/14 14:03:19;;;;;;;3.33;1.40;;;;;;;;;;5029134;28;20037;-79
2024/03/14 14:05:45;;;;;;;2.10;1.40;;;;;;;;;;5008848;28;20121;-83
2024/03/14 14:08:10;;;;;;;2.38;1.50;;;;;;;;;;5028909;28;20443;-83
2024/03/14 14:10:37;;;;;;;2.78;1.70;;;;;;;;;;5025510;28;20033;-83
2024/03/14 14:13:03;;;;;;;2.22;1.40;;;;;;;;;;5015861;28;20021;-84
2024/03/14 14:15:29;;;;;;;3.70;1.63;;;;;;;;;;5013299;28;20036;-84
2024/03/14 14:17:56;;;;;;;3.50;1.70;;;;;;;;;;5034195;28;20029;-84
2024/03/14 14:20:23;;;;;;;3.90;1.80;;;;;;;;;;5029898;28;20373;-83
2024/03/14 14:22:49;;;;;;;2.67;1.50;;;;;;;;;;5032864;28;20551;-84
2024/03/14 14:25:14;;;;;;;3.08;1.63;;;;;;;;;;5030665;28;20025;-83
2024/03/14 14:27:43;;;;;;;3.10;1.67;;;;;;;;;;5007342;28;20032;-83
2024/03/14 14:30:16;;;;;;;3.05;1.65;;;;;;;;;;5031738;28;20037;-83
2024/03/14 14:32:44;;;;;;;4.60;1.70;;;;;;;;;;5013078;28;20392;-83
2024/03/14 14:35:09;;;;;;;2.95;1.70;;;;;;;;;;5016388;28;20033;-83
2024/03/14 14:37:35;;;;;;;3.17;1.60;;;;;;;;;;5015882;28;20091;-83
2024/03/14 14:40:00;;;;;;;4.75;1.88;;;;;;;;;;5032968;28;20064;-82
2024/03/14 14:42:26;;;;;;;3.25;1.80;;;;;;;;;;5033237;28;20067;-82
2024/03/14 14:44:51;;;;;;;3.40;1.90;;;;;;;;;;5013847;28;20377;-82
2024/03/14 14:47:17;;;;;;;3.20;1.70;;;;;;;;;;5012946;28;20529;-82